sensor_id;sensor_type;location;lat;lon;timestamp;P1;durP1;ratioP1;P2;durP2;ratioP2
23782;SDS011;12071;50.850;4.446;2022-12-17T00:00:58;71.68;;;42.20;;
23782;SDS011;12071;50.850;4.446;2022-12-17T00:03:43;79.05;;;42.28;;
23782;SDS011;12071;50.850;4.446;2022-12-17T00:06:28;74.25;;;43.55;;
23782;SDS011;12071;50.850;4.446;2022-12-17T00:09:12;70.40;;;41.47;;
23782;SDS011;12071;50.850;4.446;2022-12-17T00:11:56;70.50;;;40.53;;
23782;SDS011;12071;50.850;4.446;2022-12-17T00:14:40;69.53;;;39.78;;
23782;SDS011;12071;50.850;4.446;2022-12-17T00:17:24;66.30;;;38.53;;
23782;SDS011;12071;50.850;4.446;2022-12-17T00:20:28;67.50;;;37.25;;
23782;SDS011;12071;50.850;4.446;2022-12-17T00:23:12;65.60;;;37.67;;
23782;SDS011;12071;50.850;4.446;2022-12-17T00:25:56;64.78;;;37.15;;
23782;SDS011;12071;50.850;4.446;2022-12-17T00:28:40;71.45;;;38.13;;
23782;SDS011;12071;50.850;4.446;2022-12-17T00:31:25;72.25;;;39.25;;
23782;SDS011;12071;50.850;4.446;2022-12-17T00:34:10;67.72;;;39.47;;
23782;SDS011;12071;50.850;4.446;2022-12-17T00:36:55;69.63;;;39.53;;
23782;SDS011;12071;50.850;4.446;2022-12-17T00:39:39;65.40;;;37.38;;
23782;SDS011;12071;50.850;4.446;2022-12-17T00:42:23;63.67;;;35.10;;
23782;SDS011;12071;50.850;4.446;2022-12-17T00:45:08;59.53;;;36.15;;
23782;SDS011;12071;50.850;4.446;2022-12-17T00:47:52;63.50;;;35.65;;
23782;SDS011;12071;50.850;4.446;2022-12-17T00:50:36;66.18;;;37.00;;
23782;SDS011;12071;50.850;4.446;2022-12-17T00:53:20;71.68;;;36.88;;
23782;SDS011;12071;50.850;4.446;2022-12-17T00:56:04;68.35;;;38.03;;
23782;SDS011;12071;50.850;4.446;2022-12-17T00:58:48;66.07;;;37.75;;
23782;SDS011;12071;50.850;4.446;2022-12-17T01:01:32;65.32;;;38.55;;
23782;SDS011;12071;50.850;4.446;2022-12-17T01:04:17;69.43;;;38.53;;
23782;SDS011;12071;50.850;4.446;2022-12-17T01:07:01;67.40;;;37.58;;
23782;SDS011;12071;50.850;4.446;2022-12-17T01:09:45;62.08;;;36.13;;
23782;SDS011;12071;50.850;4.446;2022-12-17T01:12:29;65.32;;;36.80;;
23782;SDS011;12071;50.850;4.446;2022-12-17T01:15:13;64.10;;;37.42;;
23782;SDS011;12071;50.850;4.446;2022-12-17T01:17:57;69.43;;;39.00;;
23782;SDS011;12071;50.850;4.446;2022-12-17T01:20:41;70.07;;;38.30;;
23782;SDS011;12071;50.850;4.446;2022-12-17T01:23:25;65.10;;;37.28;;
23782;SDS011;12071;50.850;4.446;2022-12-17T01:26:10;61.60;;;34.67;;
23782;SDS011;12071;50.850;4.446;2022-12-17T01:28:55;63.60;;;36.00;;
23782;SDS011;12071;50.850;4.446;2022-12-17T01:31:40;62.25;;;36.20;;
23782;SDS011;12071;50.850;4.446;2022-12-17T01:34:24;58.95;;;35.40;;
23782;SDS011;12071;50.850;4.446;2022-12-17T01:37:08;62.30;;;34.78;;
23782;SDS011;12071;50.850;4.446;2022-12-17T01:39:52;59.78;;;34.53;;
23782;SDS011;12071;50.850;4.446;2022-12-17T01:42:40;57.72;;;33.35;;
23782;SDS011;12071;50.850;4.446;2022-12-17T01:45:27;60.67;;;33.85;;
23782;SDS011;12071;50.850;4.446;2022-12-17T01:48:18;59.28;;;33.42;;
23782;SDS011;12071;50.850;4.446;2022-12-17T01:51:06;60.25;;;34.88;;
23782;SDS011;12071;50.850;4.446;2022-12-17T01:53:50;58.70;;;34.42;;
23782;SDS011;12071;50.850;4.446;2022-12-17T01:56:37;63.25;;;35.25;;
23782;SDS011;12071;50.850;4.446;2022-12-17T01:59:28;59.97;;;34.00;;
23782;SDS011;12071;50.850;4.446;2022-12-17T02:02:35;53.33;;;32.03;;
23782;SDS011;12071;50.850;4.446;2022-12-17T02:05:19;55.22;;;31.15;;
23782;SDS011;12071;50.850;4.446;2022-12-17T02:08:24;54.22;;;31.23;;
23782;SDS011;12071;50.850;4.446;2022-12-17T02:11:25;58.25;;;31.65;;
23782;SDS011;12071;50.850;4.446;2022-12-17T02:14:31;47.17;;;29.15;;
23782;SDS011;12071;50.850;4.446;2022-12-17T02:17:20;52.28;;;28.92;;
23782;SDS011;12071;50.850;4.446;2022-12-17T02:20:20;46.38;;;28.20;;
23782;SDS011;12071;50.850;4.446;2022-12-17T02:26:12;49.33;;;27.67;;
23782;SDS011;12071;50.850;4.446;2022-12-17T02:29:04;48.92;;;28.30;;
23782;SDS011;12071;50.850;4.446;2022-12-17T02:31:51;46.92;;;28.38;;
23782;SDS011;12071;50.850;4.446;2022-12-17T02:34:45;48.55;;;29.05;;
23782;SDS011;12071;50.850;4.446;2022-12-17T02:37:31;52.53;;;29.33;;
23782;SDS011;12071;50.850;4.446;2022-12-17T02:40:16;49.83;;;28.20;;
23782;SDS011;12071;50.850;4.446;2022-12-17T02:43:02;45.60;;;27.27;;
23782;SDS011;12071;50.850;4.446;2022-12-17T02:45:47;45.50;;;26.20;;
23782;SDS011;12071;50.850;4.446;2022-12-17T02:48:32;40.95;;;25.73;;
23782;SDS011;12071;50.850;4.446;2022-12-17T02:51:17;45.97;;;25.83;;
23782;SDS011;12071;50.850;4.446;2022-12-17T02:54:04;47.53;;;27.25;;
23782;SDS011;12071;50.850;4.446;2022-12-17T02:56:48;46.95;;;28.23;;
23782;SDS011;12071;50.850;4.446;2022-12-17T02:59:33;49.08;;;29.35;;
23782;SDS011;12071;50.850;4.446;2022-12-17T03:02:17;48.30;;;28.25;;
23782;SDS011;12071;50.850;4.446;2022-12-17T03:05:01;46.17;;;27.27;;
23782;SDS011;12071;50.850;4.446;2022-12-17T03:07:45;52.33;;;29.27;;
23782;SDS011;12071;50.850;4.446;2022-12-17T03:10:29;51.13;;;29.83;;
23782;SDS011;12071;50.850;4.446;2022-12-17T03:13:24;51.13;;;29.27;;
23782;SDS011;12071;50.850;4.446;2022-12-17T03:16:09;45.13;;;27.52;;
23782;SDS011;12071;50.850;4.446;2022-12-17T03:18:56;45.35;;;26.65;;
23782;SDS011;12071;50.850;4.446;2022-12-17T03:21:41;44.28;;;26.98;;
23782;SDS011;12071;50.850;4.446;2022-12-17T03:24:25;47.60;;;28.63;;
23782;SDS011;12071;50.850;4.446;2022-12-17T03:27:09;51.38;;;28.92;;
23782;SDS011;12071;50.850;4.446;2022-12-17T03:29:54;48.35;;;28.73;;
23782;SDS011;12071;50.850;4.446;2022-12-17T03:32:38;51.70;;;30.02;;
23782;SDS011;12071;50.850;4.446;2022-12-17T03:35:22;50.95;;;29.98;;
23782;SDS011;12071;50.850;4.446;2022-12-17T03:38:07;51.60;;;30.38;;
23782;SDS011;12071;50.850;4.446;2022-12-17T03:40:52;48.35;;;29.42;;
23782;SDS011;12071;50.850;4.446;2022-12-17T03:43:36;48.70;;;29.35;;
23782;SDS011;12071;50.850;4.446;2022-12-17T03:46:20;49.78;;;30.30;;
23782;SDS011;12071;50.850;4.446;2022-12-17T03:49:04;49.90;;;29.65;;
23782;SDS011;12071;50.850;4.446;2022-12-17T03:51:48;45.70;;;29.50;;
23782;SDS011;12071;50.850;4.446;2022-12-17T03:54:33;51.03;;;30.48;;
23782;SDS011;12071;50.850;4.446;2022-12-17T03:57:17;48.13;;;29.05;;
23782;SDS011;12071;50.850;4.446;2022-12-17T04:00:14;54.42;;;29.60;;
23782;SDS011;12071;50.850;4.446;2022-12-17T04:02:59;49.10;;;29.60;;
23782;SDS011;12071;50.850;4.446;2022-12-17T04:05:43;51.28;;;30.40;;
23782;SDS011;12071;50.850;4.446;2022-12-17T04:08:27;54.67;;;32.13;;
23782;SDS011;12071;50.850;4.446;2022-12-17T04:11:11;53.03;;;31.02;;
23782;SDS011;12071;50.850;4.446;2022-12-17T04:13:55;52.30;;;29.67;;
23782;SDS011;12071;50.850;4.446;2022-12-17T04:16:39;53.45;;;30.38;;
23782;SDS011;12071;50.850;4.446;2022-12-17T04:19:23;56.33;;;31.40;;
23782;SDS011;12071;50.850;4.446;2022-12-17T04:22:07;58.17;;;32.38;;
23782;SDS011;12071;50.850;4.446;2022-12-17T04:24:51;55.03;;;31.30;;
23782;SDS011;12071;50.850;4.446;2022-12-17T04:27:35;54.22;;;29.75;;
23782;SDS011;12071;50.850;4.446;2022-12-17T04:30:19;55.90;;;30.58;;
23782;SDS011;12071;50.850;4.446;2022-12-17T04:33:03;53.83;;;31.60;;
23782;SDS011;12071;50.850;4.446;2022-12-17T04:35:47;50.90;;;30.52;;
23782;SDS011;12071;50.850;4.446;2022-12-17T04:38:31;54.05;;;31.67;;
23782;SDS011;12071;50.850;4.446;2022-12-17T04:41:15;52.03;;;31.40;;
23782;SDS011;12071;50.850;4.446;2022-12-17T04:44:00;48.70;;;29.92;;
23782;SDS011;12071;50.850;4.446;2022-12-17T04:46:54;48.42;;;29.17;;
23782;SDS011;12071;50.850;4.446;2022-12-17T04:49:38;51.25;;;31.50;;
23782;SDS011;12071;50.850;4.446;2022-12-17T04:52:22;48.85;;;30.75;;
23782;SDS011;12071;50.850;4.446;2022-12-17T04:55:06;62.83;;;35.72;;
23782;SDS011;12071;50.850;4.446;2022-12-17T04:57:51;62.80;;;36.70;;
23782;SDS011;12071;50.850;4.446;2022-12-17T05:00:35;53.78;;;34.20;;
23782;SDS011;12071;50.850;4.446;2022-12-17T05:03:19;55.78;;;34.10;;
23782;SDS011;12071;50.850;4.446;2022-12-17T05:06:04;61.05;;;35.40;;
23782;SDS011;12071;50.850;4.446;2022-12-17T05:08:48;54.22;;;32.15;;
23782;SDS011;12071;50.850;4.446;2022-12-17T05:11:32;57.28;;;32.10;;
23782;SDS011;12071;50.850;4.446;2022-12-17T05:14:16;49.53;;;31.65;;
23782;SDS011;12071;50.850;4.446;2022-12-17T05:17:11;50.22;;;30.88;;
23782;SDS011;12071;50.850;4.446;2022-12-17T05:19:55;54.63;;;31.20;;
23782;SDS011;12071;50.850;4.446;2022-12-17T05:22:39;54.83;;;31.55;;
23782;SDS011;12071;50.850;4.446;2022-12-17T05:25:23;54.90;;;31.63;;
23782;SDS011;12071;50.850;4.446;2022-12-17T05:28:07;55.65;;;31.45;;
23782;SDS011;12071;50.850;4.446;2022-12-17T05:30:52;53.55;;;30.77;;
23782;SDS011;12071;50.850;4.446;2022-12-17T05:33:37;52.72;;;30.90;;
23782;SDS011;12071;50.850;4.446;2022-12-17T05:36:22;51.03;;;31.25;;
23782;SDS011;12071;50.850;4.446;2022-12-17T05:39:06;54.50;;;31.67;;
23782;SDS011;12071;50.850;4.446;2022-12-17T05:41:50;55.25;;;31.95;;
23782;SDS011;12071;50.850;4.446;2022-12-17T05:44:34;56.42;;;31.63;;
23782;SDS011;12071;50.850;4.446;2022-12-17T05:47:18;59.35;;;33.33;;
23782;SDS011;12071;50.850;4.446;2022-12-17T05:50:02;61.20;;;33.83;;
23782;SDS011;12071;50.850;4.446;2022-12-17T05:52:46;111.55;;;52.03;;
23782;SDS011;12071;50.850;4.446;2022-12-17T05:55:30;77.93;;;42.20;;
23782;SDS011;12071;50.850;4.446;2022-12-17T05:58:14;68.63;;;37.00;;
23782;SDS011;12071;50.850;4.446;2022-12-17T06:00:59;56.10;;;32.88;;
23782;SDS011;12071;50.850;4.446;2022-12-17T06:03:46;57.30;;;32.67;;
23782;SDS011;12071;50.850;4.446;2022-12-17T06:06:30;55.17;;;31.48;;
23782;SDS011;12071;50.850;4.446;2022-12-17T06:09:14;53.40;;;31.20;;
23782;SDS011;12071;50.850;4.446;2022-12-17T06:11:59;52.50;;;30.55;;
23782;SDS011;12071;50.850;4.446;2022-12-17T06:14:43;51.72;;;31.40;;
23782;SDS011;12071;50.850;4.446;2022-12-17T06:17:27;53.33;;;31.35;;
23782;SDS011;12071;50.850;4.446;2022-12-17T06:20:11;56.88;;;32.22;;
23782;SDS011;12071;50.850;4.446;2022-12-17T06:23:02;52.90;;;31.95;;
23782;SDS011;12071;50.850;4.446;2022-12-17T06:25:52;54.15;;;32.17;;
23782;SDS011;12071;50.850;4.446;2022-12-17T06:28:37;55.17;;;32.90;;
23782;SDS011;12071;50.850;4.446;2022-12-17T06:31:21;54.60;;;33.38;;
23782;SDS011;12071;50.850;4.446;2022-12-17T06:34:06;52.22;;;31.58;;
23782;SDS011;12071;50.850;4.446;2022-12-17T06:36:50;51.03;;;31.05;;
23782;SDS011;12071;50.850;4.446;2022-12-17T06:39:34;59.22;;;33.42;;
23782;SDS011;12071;50.850;4.446;2022-12-17T06:42:18;54.75;;;33.13;;
23782;SDS011;12071;50.850;4.446;2022-12-17T06:45:02;66.78;;;36.03;;
23782;SDS011;12071;50.850;4.446;2022-12-17T06:47:47;57.75;;;33.58;;
23782;SDS011;12071;50.850;4.446;2022-12-17T06:50:31;56.72;;;33.22;;
23782;SDS011;12071;50.850;4.446;2022-12-17T06:53:15;52.58;;;31.65;;
23782;SDS011;12071;50.850;4.446;2022-12-17T06:55:59;55.60;;;32.33;;
23782;SDS011;12071;50.850;4.446;2022-12-17T06:58:43;51.90;;;31.77;;
23782;SDS011;12071;50.850;4.446;2022-12-17T07:01:28;58.88;;;34.03;;
23782;SDS011;12071;50.850;4.446;2022-12-17T07:04:12;57.58;;;33.08;;
23782;SDS011;12071;50.850;4.446;2022-12-17T07:06:56;64.85;;;35.60;;
23782;SDS011;12071;50.850;4.446;2022-12-17T07:09:41;66.03;;;36.60;;
23782;SDS011;12071;50.850;4.446;2022-12-17T07:12:25;55.90;;;33.75;;
23782;SDS011;12071;50.850;4.446;2022-12-17T07:15:09;56.50;;;33.13;;
23782;SDS011;12071;50.850;4.446;2022-12-17T07:17:58;55.30;;;32.92;;
23782;SDS011;12071;50.850;4.446;2022-12-17T07:20:44;66.18;;;36.38;;
23782;SDS011;12071;50.850;4.446;2022-12-17T07:23:29;68.65;;;36.50;;
23782;SDS011;12071;50.850;4.446;2022-12-17T07:26:14;63.40;;;36.88;;
23782;SDS011;12071;50.850;4.446;2022-12-17T07:28:58;58.88;;;35.10;;
23782;SDS011;12071;50.850;4.446;2022-12-17T07:31:42;64.55;;;36.78;;
23782;SDS011;12071;50.850;4.446;2022-12-17T07:34:26;63.17;;;36.88;;
23782;SDS011;12071;50.850;4.446;2022-12-17T07:37:10;63.83;;;36.17;;
23782;SDS011;12071;50.850;4.446;2022-12-17T07:39:54;67.45;;;34.63;;
23782;SDS011;12071;50.850;4.446;2022-12-17T07:42:39;66.18;;;35.95;;
23782;SDS011;12071;50.850;4.446;2022-12-17T07:45:23;60.53;;;35.97;;
23782;SDS011;12071;50.850;4.446;2022-12-17T07:48:08;65.28;;;36.17;;
23782;SDS011;12071;50.850;4.446;2022-12-17T07:50:54;68.32;;;36.90;;
23782;SDS011;12071;50.850;4.446;2022-12-17T07:53:38;65.88;;;39.03;;
23782;SDS011;12071;50.850;4.446;2022-12-17T07:56:27;74.38;;;37.88;;
23782;SDS011;12071;50.850;4.446;2022-12-17T07:59:31;63.08;;;37.33;;
23782;SDS011;12071;50.850;4.446;2022-12-17T08:02:15;65.75;;;39.17;;
23782;SDS011;12071;50.850;4.446;2022-12-17T08:04:59;71.72;;;38.85;;
23782;SDS011;12071;50.850;4.446;2022-12-17T08:07:44;62.53;;;37.80;;
23782;SDS011;12071;50.850;4.446;2022-12-17T08:10:28;64.57;;;37.05;;
23782;SDS011;12071;50.850;4.446;2022-12-17T08:13:12;67.20;;;38.30;;
23782;SDS011;12071;50.850;4.446;2022-12-17T08:15:56;64.68;;;39.20;;
23782;SDS011;12071;50.850;4.446;2022-12-17T08:18:40;67.20;;;37.88;;
23782;SDS011;12071;50.850;4.446;2022-12-17T08:21:24;77.40;;;39.80;;
23782;SDS011;12071;50.850;4.446;2022-12-17T08:24:08;74.38;;;41.95;;
23782;SDS011;12071;50.850;4.446;2022-12-17T08:26:52;79.45;;;42.92;;
23782;SDS011;12071;50.850;4.446;2022-12-17T08:29:36;78.88;;;43.70;;
23782;SDS011;12071;50.850;4.446;2022-12-17T08:32:20;77.00;;;41.08;;
23782;SDS011;12071;50.850;4.446;2022-12-17T08:35:05;82.65;;;43.78;;
23782;SDS011;12071;50.850;4.446;2022-12-17T08:37:50;78.25;;;43.13;;
23782;SDS011;12071;50.850;4.446;2022-12-17T08:40:34;80.35;;;41.30;;
23782;SDS011;12071;50.850;4.446;2022-12-17T08:43:18;77.47;;;41.17;;
23782;SDS011;12071;50.850;4.446;2022-12-17T08:46:02;85.15;;;44.40;;
23782;SDS011;12071;50.850;4.446;2022-12-17T08:48:46;86.50;;;43.53;;
23782;SDS011;12071;50.850;4.446;2022-12-17T08:51:30;81.00;;;43.20;;
23782;SDS011;12071;50.850;4.446;2022-12-17T08:54:14;86.15;;;43.78;;
23782;SDS011;12071;50.850;4.446;2022-12-17T08:56:59;85.90;;;43.58;;
23782;SDS011;12071;50.850;4.446;2022-12-17T08:59:43;82.90;;;43.88;;
23782;SDS011;12071;50.850;4.446;2022-12-17T09:02:27;89.35;;;44.33;;
23782;SDS011;12071;50.850;4.446;2022-12-17T09:05:11;86.55;;;44.78;;
23782;SDS011;12071;50.850;4.446;2022-12-17T09:08:02;80.70;;;43.13;;
23782;SDS011;12071;50.850;4.446;2022-12-17T09:10:49;84.85;;;44.95;;
23782;SDS011;12071;50.850;4.446;2022-12-17T09:13:34;88.47;;;44.88;;
23782;SDS011;12071;50.850;4.446;2022-12-17T09:16:18;88.25;;;44.53;;
23782;SDS011;12071;50.850;4.446;2022-12-17T09:19:03;89.88;;;45.00;;
23782;SDS011;12071;50.850;4.446;2022-12-17T09:21:48;83.13;;;42.97;;
23782;SDS011;12071;50.850;4.446;2022-12-17T09:24:32;88.43;;;43.80;;
23782;SDS011;12071;50.850;4.446;2022-12-17T09:27:16;86.40;;;43.55;;
23782;SDS011;12071;50.850;4.446;2022-12-17T09:30:00;84.90;;;43.47;;
23782;SDS011;12071;50.850;4.446;2022-12-17T09:32:44;84.65;;;43.83;;
23782;SDS011;12071;50.850;4.446;2022-12-17T09:35:29;82.30;;;43.53;;
23782;SDS011;12071;50.850;4.446;2022-12-17T09:38:13;84.50;;;43.33;;
23782;SDS011;12071;50.850;4.446;2022-12-17T09:44:07;79.68;;;43.63;;
23782;SDS011;12071;50.850;4.446;2022-12-17T09:50:07;86.35;;;44.25;;
23782;SDS011;12071;50.850;4.446;2022-12-17T09:52:57;85.57;;;43.10;;
23782;SDS011;12071;50.850;4.446;2022-12-17T09:55:51;81.68;;;42.22;;
23782;SDS011;12071;50.850;4.446;2022-12-17T09:58:37;79.13;;;41.53;;
23782;SDS011;12071;50.850;4.446;2022-12-17T10:01:26;80.20;;;42.03;;
23782;SDS011;12071;50.850;4.446;2022-12-17T10:07:04;76.65;;;40.03;;
23782;SDS011;12071;50.850;4.446;2022-12-17T10:09:56;78.13;;;40.58;;
23782;SDS011;12071;50.850;4.446;2022-12-17T10:12:53;79.00;;;40.45;;
23782;SDS011;12071;50.850;4.446;2022-12-17T10:15:37;84.50;;;42.63;;
23782;SDS011;12071;50.850;4.446;2022-12-17T10:18:24;72.38;;;38.85;;
23782;SDS011;12071;50.850;4.446;2022-12-17T10:21:09;76.47;;;39.03;;
23782;SDS011;12071;50.850;4.446;2022-12-17T10:24:08;76.32;;;38.10;;
23782;SDS011;12071;50.850;4.446;2022-12-17T10:26:52;69.75;;;37.53;;
23782;SDS011;12071;50.850;4.446;2022-12-17T10:29:36;71.85;;;37.92;;
23782;SDS011;12071;50.850;4.446;2022-12-17T10:32:23;72.93;;;37.15;;
23782;SDS011;12071;50.850;4.446;2022-12-17T10:35:19;72.10;;;37.20;;
23782;SDS011;12071;50.850;4.446;2022-12-17T10:47:12;70.00;;;36.00;;
23782;SDS011;12071;50.850;4.446;2022-12-17T10:50:00;67.25;;;35.60;;
23782;SDS011;12071;50.850;4.446;2022-12-17T10:52:46;65.78;;;35.30;;
23782;SDS011;12071;50.850;4.446;2022-12-17T10:55:31;72.13;;;38.22;;
23782;SDS011;12071;50.850;4.446;2022-12-17T11:01:03;75.10;;;36.05;;
23782;SDS011;12071;50.850;4.446;2022-12-17T11:03:50;68.50;;;36.65;;
23782;SDS011;12071;50.850;4.446;2022-12-17T11:06:39;66.57;;;34.83;;
23782;SDS011;12071;50.850;4.446;2022-12-17T11:12:29;62.47;;;34.33;;
23782;SDS011;12071;50.850;4.446;2022-12-17T11:15:21;66.45;;;34.70;;
23782;SDS011;12071;50.850;4.446;2022-12-17T11:18:08;67.78;;;35.00;;
23782;SDS011;12071;50.850;4.446;2022-12-17T11:24:24;61.10;;;32.65;;
23782;SDS011;12071;50.850;4.446;2022-12-17T11:27:19;71.75;;;35.88;;
23782;SDS011;12071;50.850;4.446;2022-12-17T11:30:11;64.57;;;33.20;;
23782;SDS011;12071;50.850;4.446;2022-12-17T11:33:03;68.93;;;35.03;;
23782;SDS011;12071;50.850;4.446;2022-12-17T11:39:09;63.72;;;32.85;;
23782;SDS011;12071;50.850;4.446;2022-12-17T11:42:28;58.85;;;31.48;;
23782;SDS011;12071;50.850;4.446;2022-12-17T11:45:25;66.07;;;33.15;;
23782;SDS011;12071;50.850;4.446;2022-12-17T11:48:31;64.32;;;33.80;;
23782;SDS011;12071;50.850;4.446;2022-12-17T11:51:45;70.95;;;36.22;;
23782;SDS011;12071;50.850;4.446;2022-12-17T11:57:26;56.28;;;31.98;;
23782;SDS011;12071;50.850;4.446;2022-12-17T12:00:19;52.55;;;30.17;;
23782;SDS011;12071;50.850;4.446;2022-12-17T12:06:42;60.00;;;31.15;;
23782;SDS011;12071;50.850;4.446;2022-12-17T12:21:39;67.10;;;32.80;;
23782;SDS011;12071;50.850;4.446;2022-12-17T12:24:42;62.58;;;31.27;;
23782;SDS011;12071;50.850;4.446;2022-12-17T12:27:54;57.42;;;30.65;;
23782;SDS011;12071;50.850;4.446;2022-12-17T12:30:59;59.35;;;29.25;;
23782;SDS011;12071;50.850;4.446;2022-12-17T12:34:03;59.10;;;30.15;;
23782;SDS011;12071;50.850;4.446;2022-12-17T12:36:53;57.03;;;29.58;;
23782;SDS011;12071;50.850;4.446;2022-12-17T12:39:56;54.22;;;29.80;;
23782;SDS011;12071;50.850;4.446;2022-12-17T12:46:16;60.00;;;32.13;;
23782;SDS011;12071;50.850;4.446;2022-12-17T12:52:20;60.03;;;31.45;;
23782;SDS011;12071;50.850;4.446;2022-12-17T12:55:06;57.00;;;29.17;;
23782;SDS011;12071;50.850;4.446;2022-12-17T13:03:31;58.72;;;30.73;;
23782;SDS011;12071;50.850;4.446;2022-12-17T13:11:41;60.20;;;29.80;;
23782;SDS011;12071;50.850;4.446;2022-12-17T13:14:12;59.75;;;30.92;;
23782;SDS011;12071;50.850;4.446;2022-12-17T13:21:56;60.58;;;29.73;;
23782;SDS011;12071;50.850;4.446;2022-12-17T13:24:33;54.70;;;29.23;;
23782;SDS011;12071;50.850;4.446;2022-12-17T13:26:58;56.78;;;30.67;;
23782;SDS011;12071;50.850;4.446;2022-12-17T13:29:28;56.60;;;29.08;;
23782;SDS011;12071;50.850;4.446;2022-12-17T13:34:50;58.55;;;30.75;;
23782;SDS011;12071;50.850;4.446;2022-12-17T13:43:30;61.57;;;30.60;;
23782;SDS011;12071;50.850;4.446;2022-12-17T13:45:57;61.67;;;30.98;;
23782;SDS011;12071;50.850;4.446;2022-12-17T13:48:24;66.05;;;31.90;;
23782;SDS011;12071;50.850;4.446;2022-12-17T13:50:59;61.83;;;31.88;;
23782;SDS011;12071;50.850;4.446;2022-12-17T13:53:27;65.30;;;33.38;;
23782;SDS011;12071;50.850;4.446;2022-12-17T13:55:55;63.03;;;32.35;;
23782;SDS011;12071;50.850;4.446;2022-12-17T14:00:49;61.20;;;32.35;;
23782;SDS011;12071;50.850;4.446;2022-12-17T14:03:17;62.17;;;32.42;;
23782;SDS011;12071;50.850;4.446;2022-12-17T14:05:45;59.55;;;31.63;;
23782;SDS011;12071;50.850;4.446;2022-12-17T14:08:12;57.58;;;31.65;;
23782;SDS011;12071;50.850;4.446;2022-12-17T14:10:44;56.15;;;30.75;;
23782;SDS011;12071;50.850;4.446;2022-12-17T14:13:15;56.45;;;31.48;;
23782;SDS011;12071;50.850;4.446;2022-12-17T14:15:46;59.03;;;31.85;;
23782;SDS011;12071;50.850;4.446;2022-12-17T14:18:14;59.20;;;31.55;;
23782;SDS011;12071;50.850;4.446;2022-12-17T14:20:42;58.33;;;30.73;;
23782;SDS011;12071;50.850;4.446;2022-12-17T14:23:13;62.97;;;32.72;;
23782;SDS011;12071;50.850;4.446;2022-12-17T14:28:32;62.65;;;32.47;;
23782;SDS011;12071;50.850;4.446;2022-12-17T14:31:19;65.28;;;31.83;;
23782;SDS011;12071;50.850;4.446;2022-12-17T14:34:09;57.33;;;30.45;;
23782;SDS011;12071;50.850;4.446;2022-12-17T14:36:37;59.78;;;31.60;;
23782;SDS011;12071;50.850;4.446;2022-12-17T14:39:14;59.10;;;31.92;;
23782;SDS011;12071;50.850;4.446;2022-12-17T14:41:46;61.67;;;32.53;;
23782;SDS011;12071;50.850;4.446;2022-12-17T14:44:31;62.30;;;32.00;;
23782;SDS011;12071;50.850;4.446;2022-12-17T14:49:56;59.40;;;31.30;;
23782;SDS011;12071;50.850;4.446;2022-12-17T14:52:52;61.08;;;30.95;;
23782;SDS011;12071;50.850;4.446;2022-12-17T14:55:31;58.83;;;31.95;;
23782;SDS011;12071;50.850;4.446;2022-12-17T14:58:16;64.38;;;30.33;;
23782;SDS011;12071;50.850;4.446;2022-12-17T15:00:45;68.35;;;33.90;;
23782;SDS011;12071;50.850;4.446;2022-12-17T15:03:17;66.90;;;33.35;;
23782;SDS011;12071;50.850;4.446;2022-12-17T15:05:49;63.65;;;33.55;;
23782;SDS011;12071;50.850;4.446;2022-12-17T15:08:17;74.70;;;38.10;;
23782;SDS011;12071;50.850;4.446;2022-12-17T15:10:44;74.78;;;39.03;;
23782;SDS011;12071;50.850;4.446;2022-12-17T15:13:09;72.15;;;36.38;;
23782;SDS011;12071;50.850;4.446;2022-12-17T15:15:36;97.50;;;46.30;;
23782;SDS011;12071;50.850;4.446;2022-12-17T15:18:02;75.63;;;38.25;;
23782;SDS011;12071;50.850;4.446;2022-12-17T15:20:27;77.85;;;38.08;;
23782;SDS011;12071;50.850;4.446;2022-12-17T15:22:53;66.10;;;35.78;;
23782;SDS011;12071;50.850;4.446;2022-12-17T15:25:19;72.00;;;36.53;;
23782;SDS011;12071;50.850;4.446;2022-12-17T15:27:44;72.07;;;36.38;;
23782;SDS011;12071;50.850;4.446;2022-12-17T15:30:14;76.32;;;37.05;;
23782;SDS011;12071;50.850;4.446;2022-12-17T15:32:41;71.35;;;35.65;;
23782;SDS011;12071;50.850;4.446;2022-12-17T15:35:07;70.68;;;35.97;;
23782;SDS011;12071;50.850;4.446;2022-12-17T15:37:33;70.63;;;35.03;;
23782;SDS011;12071;50.850;4.446;2022-12-17T15:39:59;75.35;;;35.30;;
23782;SDS011;12071;50.850;4.446;2022-12-17T15:42:24;69.28;;;35.95;;
23782;SDS011;12071;50.850;4.446;2022-12-17T15:45:09;75.43;;;36.53;;
23782;SDS011;12071;50.850;4.446;2022-12-17T15:47:34;77.65;;;39.15;;
23782;SDS011;12071;50.850;4.446;2022-12-17T15:50:00;79.50;;;37.90;;
23782;SDS011;12071;50.850;4.446;2022-12-17T15:52:26;82.55;;;39.60;;
23782;SDS011;12071;50.850;4.446;2022-12-17T15:54:52;81.80;;;38.53;;
23782;SDS011;12071;50.850;4.446;2022-12-17T15:57:17;77.80;;;36.92;;
23782;SDS011;12071;50.850;4.446;2022-12-17T15:59:43;77.75;;;39.88;;
23782;SDS011;12071;50.850;4.446;2022-12-17T16:02:09;80.53;;;38.28;;
23782;SDS011;12071;50.850;4.446;2022-12-17T16:04:35;79.70;;;37.45;;
23782;SDS011;12071;50.850;4.446;2022-12-17T16:07:01;87.90;;;40.08;;
23782;SDS011;12071;50.850;4.446;2022-12-17T16:09:28;83.22;;;39.85;;
23782;SDS011;12071;50.850;4.446;2022-12-17T16:11:53;89.82;;;41.75;;
23782;SDS011;12071;50.850;4.446;2022-12-17T16:14:21;88.07;;;39.83;;
23782;SDS011;12071;50.850;4.446;2022-12-17T16:16:48;83.10;;;40.15;;
23782;SDS011;12071;50.850;4.446;2022-12-17T16:19:16;88.13;;;41.35;;
23782;SDS011;12071;50.850;4.446;2022-12-17T16:21:43;92.13;;;42.78;;
23782;SDS011;12071;50.850;4.446;2022-12-17T16:24:09;93.28;;;43.42;;
23782;SDS011;12071;50.850;4.446;2022-12-17T16:26:35;90.80;;;42.47;;
23782;SDS011;12071;50.850;4.446;2022-12-17T16:29:00;87.13;;;42.40;;
23782;SDS011;12071;50.850;4.446;2022-12-17T16:31:27;89.65;;;42.88;;
23782;SDS011;12071;50.850;4.446;2022-12-17T16:33:52;87.38;;;41.35;;
23782;SDS011;12071;50.850;4.446;2022-12-17T16:36:18;96.28;;;45.13;;
23782;SDS011;12071;50.850;4.446;2022-12-17T16:38:49;88.75;;;43.55;;
23782;SDS011;12071;50.850;4.446;2022-12-17T16:41:16;96.25;;;45.22;;
23782;SDS011;12071;50.850;4.446;2022-12-17T16:43:42;94.03;;;45.30;;
23782;SDS011;12071;50.850;4.446;2022-12-17T16:46:50;97.90;;;45.17;;
23782;SDS011;12071;50.850;4.446;2022-12-17T16:48:59;93.72;;;44.22;;
23782;SDS011;12071;50.850;4.446;2022-12-17T16:51:29;94.22;;;44.30;;
23782;SDS011;12071;50.850;4.446;2022-12-17T16:53:56;95.75;;;45.25;;
23782;SDS011;12071;50.850;4.446;2022-12-17T16:56:23;99.35;;;46.00;;
23782;SDS011;12071;50.850;4.446;2022-12-17T16:58:51;94.13;;;44.28;;
23782;SDS011;12071;50.850;4.446;2022-12-17T17:01:18;95.97;;;44.72;;
23782;SDS011;12071;50.850;4.446;2022-12-17T17:03:45;92.18;;;44.00;;
23782;SDS011;12071;50.850;4.446;2022-12-17T17:06:11;90.32;;;42.45;;
23782;SDS011;12071;50.850;4.446;2022-12-17T17:08:38;102.22;;;46.45;;
23782;SDS011;12071;50.850;4.446;2022-12-17T17:11:05;149.27;;;47.42;;
23782;SDS011;12071;50.850;4.446;2022-12-17T17:13:38;89.30;;;43.90;;
23782;SDS011;12071;50.850;4.446;2022-12-17T17:16:05;92.55;;;43.15;;
23782;SDS011;12071;50.850;4.446;2022-12-17T17:18:32;95.90;;;44.80;;
23782;SDS011;12071;50.850;4.446;2022-12-17T17:21:11;103.60;;;45.90;;